Latest Weather Observations for PORTABLE BTSB (DFES)

IDW60801

Issued at 7:33 am WST Friday 19 August 2022 (issued every 10 minutes, with the page automatically refreshed every 10 minutes)

About weather observations | Map of weather stations | Latest weather observations for WA | Other Formats
Station Details ID: 250117 Name: PORTABLE WA BTSB (DFES) Lat: -31.96 Lon: 116.69 Height: 20.0 m

Portable automatic weather stations (PAWS) are operated by other organisations, such as Fire and Emergency Services, and are included here by agreement. Portable stations may be deployed to a location for a short period and their location may be subject to change without notice. Wind observations from these stations are provided from heights of either three (3) or ten (10) metres above ground level (AGL).

Data from the previous 72 hours. | See also: Recent months for locations in Western Australia
Date/Time
WST
Temp
°C
App
Temp
°C
Dew
Point
°C
Rel
Hum
%
Delta-T
°C
Wind Press
QNH
hPa
Press
MSL
hPa
Rain since
9am
mm
Dir  Spd
km/h
Gust
km/h
Spd
kts
Gust
kts
19/07:20am 8.2 6.2 6.3 88 0.9 WNW 6 7 3 4 - - 0.0
19/07:10am 7.5 5.2 5.9 90 0.7 W 7 7 4 4 - - 0.0
19/07:00am 7.3 5.2 5.9 91 0.6 WNW 6 7 3 4 - - 0.0
19/06:50am 7.9 5.8 6.0 88 0.9 WNW 6 7 3 4 - - 0.0
19/06:40am 8.7 6.5 6.2 84 1.1 W 7 7 4 4 - - 0.0
19/06:30am 8.6 6.6 6.4 86 1.0 WNW 6 7 3 4 - - 0.0
19/06:20am 8.2 6.0 6.4 88 0.8 WNW 7 7 4 4 - - 0.0
19/06:10am 8.6 6.6 6.4 86 1.0 WNW 6 7 3 4 - - 0.0
19/06:00am 9.2 6.6 6.3 82 1.3 W 9 9 5 5 - - 0.0
19/05:50am 9.6 7.4 6.3 80 1.5 W 7 9 4 5 - - 0.0
19/05:40am 9.2 7.0 6.3 82 1.3 WSW 7 9 4 5 - - 0.0
19/05:30am 8.3 6.3 6.4 88 0.9 W 6 7 3 4 - - 0.0
19/05:20am 7.7 5.7 6.2 90 0.7 W 6 6 3 3 - - 0.0
19/05:10am 7.7 5.7 6.1 90 0.7 WNW 6 6 3 3 - - 0.0
19/05:00am 8.6 6.6 6.4 86 1.0 WNW 6 6 3 3 - - 0.0
19/04:50am 9.8 7.8 6.2 78 1.7 W 6 7 3 4 - - 0.0
19/04:40am 9.8 7.8 6.3 79 1.6 W 6 7 3 4 - - 0.0
19/04:30am 9.7 7.5 6.2 79 1.6 W 7 9 4 5 - - 0.0
19/04:20am 9.7 7.7 6.2 79 1.6 WSW 6 7 3 4 - - 0.0
19/04:10am 9.7 7.5 6.2 79 1.6 WSW 7 9 4 5 - - 0.0
19/04:00am 9.3 7.3 6.3 81 1.4 WSW 6 7 3 4 - - 0.0
19/03:50am 9.2 7.2 6.3 82 1.3 W 6 7 3 4 - - 0.0
19/03:40am 9.1 6.9 6.4 83 1.2 WSW 7 7 4 4 - - 0.0
19/03:30am 9.0 6.9 6.5 84 1.2 WSW 7 7 4 4 - - 0.0
19/03:10am 9.1 7.0 6.5 84 1.2 WSW 7 9 4 5 - - 0.0
19/03:00am 9.0 6.8 6.4 84 1.2 WSW 7 9 4 5 - - 0.0
19/02:50am 8.7 6.5 6.3 85 1.1 W 7 9 4 5 - - 0.0
19/02:40am 8.7 6.1 6.2 84 1.1 W 9 9 5 5 - - 0.0
19/02:30am 8.9 6.3 6.3 84 1.2 W 9 9 5 5 - - 0.0
19/02:20am 9.1 6.9 6.4 83 1.2 WSW 7 9 4 5 - - 0.0
19/01:50am 8.9 6.7 6.3 84 1.2 W 7 9 4 5 - - 0.0
19/01:30am 8.9 6.7 6.3 84 1.2 W 7 7 4 4 - - 0.0
19/01:10am 9.3 7.1 6.4 82 1.3 W 7 7 4 4 - - 0.0
19/01:00am 9.6 7.7 6.8 83 1.3 W 6 7 3 4 - - 0.0
19/12:40am 10.2 8.4 7.2 82 1.4 W 6 7 3 4 - - 0.0
19/12:30am 10.2 8.2 7.2 82 1.4 W 7 7 4 4 - - 0.0
19/12:20am 10.1 8.3 7.2 82 1.4 W 6 7 3 4 - - 0.0
19/12:10am 10.0 8.2 7.3 83 1.3 W 6 7 3 4 - - 0.0
19/12:00am 10.0 8.0 7.2 83 1.3 W 7 7 4 4 - - 0.0
 
Date/Time
WST
Temp
°C
App
Temp
°C
Dew
Point
°C
Rel
Hum
%
Delta-T
°C
Wind Press
QNH
hPa
Press
MSL
hPa
Rain since
9am
mm
Dir  Spd
km/h
Gust
km/h
Spd
kts
Gust
kts
18/11:50pm 10.0 8.0 7.2 83 1.3 W 7 7 4 4 - - 0.0
18/11:40pm 10.2 8.2 7.2 82 1.4 W 7 9 4 5 - - 0.0
18/11:30pm 9.9 7.9 6.9 81 1.4 WSW 7 7 4 4 - - 0.0
18/11:20pm 9.7 7.9 7.1 84 1.2 WNW 6 7 3 4 - - 0.0
18/11:10pm 9.8 7.8 6.9 82 1.4 NW 7 9 4 5 - - 0.0
18/11:00pm 9.7 7.6 6.8 82 1.4 WNW 7 7 4 4 - - 0.0
18/10:50pm 9.3 7.2 6.7 84 1.2 W 7 7 4 4 - - 0.0
18/10:40pm 8.9 6.7 6.2 83 1.2 W 7 7 4 4 - - 0.0
18/10:20pm 8.5 6.4 5.6 82 1.3 WNW 6 6 3 3 - - 0.0
18/10:10pm 9.1 7.0 5.7 79 1.5 W 6 6 3 3 - - 0.0
18/10:00pm 9.3 7.2 5.8 79 1.6 WSW 6 6 3 3 - - 0.0
18/09:50pm 9.0 6.7 5.8 80 1.5 WSW 7 7 4 4 - - 0.0
18/09:40pm 9.2 6.9 5.8 79 1.6 W 7 7 4 4 - - 0.0
18/09:30pm 9.3 7.0 5.7 78 1.6 W 7 7 4 4 - - 0.0
18/09:20pm 9.4 7.1 5.6 77 1.7 W 7 7 4 4 - - 0.0
18/09:10pm 9.7 7.6 5.6 75 1.9 WSW 6 7 3 4 - - 0.0
18/09:00pm 9.8 7.7 5.6 75 1.9 WSW 6 7 3 4 - - 0.0
18/08:50pm 9.8 7.5 5.6 75 1.9 WSW 7 7 4 4 - - 0.0
18/08:40pm 9.8 7.7 5.8 76 1.8 W 6 7 3 4 - - 0.0
18/08:30pm 9.9 7.6 5.8 75 1.9 WSW 7 7 4 4 - - 0.0
18/08:20pm 9.6 7.2 5.4 75 1.9 WSW 7 7 4 4 - - 0.0
18/08:10pm 9.2 6.9 5.5 77 1.7 W 7 7 4 4 - - 0.0
18/08:00pm 9.6 7.3 5.5 75 1.9 W 7 9 4 5 - - 0.0
18/07:50pm 9.9 7.6 5.7 75 1.9 WSW 7 7 4 4 - - 0.0
18/07:40pm 9.9 7.6 5.8 75 1.9 WSW 7 7 4 4 - - 0.0
18/07:30pm 9.9 7.6 5.9 76 1.8 W 7 7 4 4 - - 0.0
18/07:20pm 10.5 8.4 5.9 73 2.1 WSW 6 7 3 4 - - 0.0
18/07:10pm 10.6 8.5 5.9 73 2.2 WSW 6 6 3 3 - - 0.0
18/07:00pm 10.7 8.6 5.8 72 2.3 WSW 6 7 3 4 - - 0.0
18/06:50pm 10.7 8.6 5.9 72 2.2 WSW 6 7 3 4 - - 0.0
18/06:40pm 10.6 8.5 6.0 73 2.1 W 6 6 3 3 - - 0.0
18/06:30pm 10.9 8.9 6.2 73 2.2 W 6 7 3 4 - - 0.0
18/06:20pm 11.1 9.8 6.1 71 2.3 SW 2 6 1 3 - - 0.0
18/06:10pm 11.2 9.9 6.1 71 2.4 SW 2 4 1 2 - - 0.0
18/06:00pm 11.4 9.8 6.2 70 2.4 SW 4 6 2 3 - - 0.0
18/05:50pm 11.6 10.4 6.4 70 2.5 SW 2 4 1 2 - - 0.0
18/05:40pm 12.2 10.6 6.4 67 2.7 SW 4 6 2 3 - - 0.0
18/05:30pm 12.6 11.0 6.3 65 3.0 SW 4 4 2 2 - - 0.0
18/05:20pm 13.0 11.0 6.4 64 3.1 SW 6 9 3 5 - - 0.0
18/05:10pm 13.8 11.9 6.7 62 3.4 WSW 6 9 3 5 - - 0.0
18/05:00pm 14.0 11.9 6.5 60 3.6 WSW 7 11 4 6 - - 0.0
18/04:50pm 14.1 11.2 6.3 59 3.7 WSW 11 13 6 7 - - 0.0
18/04:40pm 14.2 11.6 6.0 58 3.9 WSW 9 13 5 7 - - 0.0
18/04:30pm 13.5 10.9 6.2 61 3.5 WSW 9 13 5 7 - - 0.0
18/04:20pm 13.5 10.9 6.0 60 3.6 WSW 9 13 5 7 - - 0.0
18/04:10pm 13.6 11.3 5.9 59 3.6 WSW 7 9 4 5 - - 0.0
18/04:00pm 13.6 11.6 6.3 61 3.5 WSW 6 7 3 4 - - 0.0
18/03:50pm 13.8 11.6 6.4 61 3.6 WSW 7 7 4 4 - - 0.0
18/03:40pm 14.5 12.3 6.4 58 3.9 WSW 7 9 4 5 - - 0.0
18/03:30pm 14.8 12.8 6.1 56 4.2 WSW 6 7 3 4 - - 0.0
18/03:20pm 13.9 11.9 6.9 62 3.4 SW 7 11 4 6 - - 0.0
18/03:10pm 14.0 11.6 6.8 62 3.5 W 9 13 5 7 - - 0.0
18/03:00pm 14.2 12.3 6.8 61 3.6 WSW 6 7 3 4 - - 0.0
18/02:50pm 14.1 12.2 6.9 62 3.5 WSW 6 7 3 4 - - 0.0
18/02:40pm 14.1 12.2 6.6 60 3.6 SW 6 11 3 6 - - 0.0
18/02:30pm 14.1 11.8 5.7 57 4.0 WSW 7 11 4 6 - - 0.0
18/02:20pm 14.3 12.3 6.2 58 3.9 SW 6 9 3 5 - - 0.0
18/02:10pm 14.0 11.7 5.7 57 3.9 SW 7 9 4 5 - - 0.0
18/02:00pm 14.1 12.2 6.5 60 3.7 WSW 6 7 3 4 - - 0.0
18/01:50pm 14.2 12.4 7.1 62 3.5 SW 6 9 3 5 - - 0.0
18/01:40pm 14.5 11.9 6.0 56 4.1 WSW 9 13 5 7 - - 0.0
18/01:30pm 14.2 12.1 5.7 56 4.0 WSW 6 9 3 5 - - 0.0
18/01:20pm 14.2 12.1 5.7 56 4.0 WSW 6 7 3 4 - - 0.0
18/01:10pm 14.5 12.4 6.0 56 4.1 SW 6 7 3 4 - - 0.0
18/01:00pm 14.6 12.2 5.1 53 4.5 WSW 7 11 4 6 - - 0.0
18/12:50pm 14.8 12.1 5.6 54 4.4 WSW 9 13 5 7 - - 0.0
18/12:40pm 15.2 12.5 5.7 53 4.5 SW 9 17 5 9 - - 0.0
18/12:30pm 14.4 11.4 6.2 58 3.9 W 11 13 6 7 - - 0.0
18/12:20pm 14.0 11.5 4.9 54 4.2 WSW 7 13 4 7 - - 0.0
18/12:10pm 14.3 12.2 5.8 56 4.0 SW 6 7 3 4 - - 0.0
18/12:00pm 14.4 12.7 5.8 56 4.1 SE 4 6 2 3 - - 0.0
18/11:50am 13.9 11.7 5.5 57 4.0 S 6 9 3 5 - - 0.0
18/11:40am 13.8 11.8 6.2 60 3.6 SW 6 7 3 4 - - 0.0
18/11:30am 13.8 11.5 5.0 55 4.1 W 6 7 3 4 - - 0.0
18/11:20am 14.2 12.4 5.3 55 4.2 NNE 4 6 2 3 - - 0.0
18/11:10am 14.3 12.6 6.0 57 4.0 NNE 4 6 2 3 - - 0.0
18/11:00am 14.1 12.5 4.3 51 4.5 WSW 2 6 1 3 - - 0.0
18/10:50am 13.5 11.4 3.9 52 4.4 SW 4 7 2 4 - - 0.0
18/10:40am 13.3 11.6 6.1 61 3.4 NE 4 7 2 4 - - 0.0
18/10:30am 12.8 11.0 5.2 60 3.5 NNW 4 6 2 3 - - 0.0
18/10:20am 12.7 10.7 4.2 56 3.9 W 4 7 2 4 - - 0.0
18/10:10am 12.6 10.7 4.9 59 3.5 NW 4 7 2 4 - - 0.0
18/10:00am 12.5 10.3 3.2 53 4.1 W 4 7 2 4 - - 0.0
18/09:50am 12.1 9.6 3.8 57 3.7 W 6 7 3 4 - - 0.0
18/09:40am 11.8 9.6 5.5 65 2.9 W 6 7 3 4 - - 0.0
18/09:30am 11.5 9.2 5.0 64 3.0 W 6 7 3 4 - - 0.0
18/09:20am 11.3 9.1 5.1 65 2.8 WNW 6 7 3 4 - - 0.0
18/09:10am 11.0 8.7 4.9 66 2.8 W 6 7 3 4 - - 0.0
18/09:00am 10.7 8.2 4.9 67 2.6 WNW 7 9 4 5 - - 7.2
18/08:50am 10.5 8.5 6.1 74 2.0 WNW 6 7 3 4 - - 7.2
18/08:40am 10.0 7.6 4.3 67 2.5 WNW 6 7 3 4 - - 7.2
18/08:30am 9.4 7.5 6.8 84 1.2 NW 6 6 3 3 - - 7.2
18/08:20am 9.2 7.6 6.2 81 1.4 NW 4 4 2 2 - - 7.2
18/08:10am 9.2 7.6 6.2 81 1.4 NW 4 4 2 2 - - 7.2
18/08:00am 8.8 7.1 5.7 81 1.4 WNW 4 6 2 3 - - 7.2
18/07:50am 8.8 6.9 4.8 76 1.8 WSW 4 6 2 3 - - 7.2
18/07:40am 8.2 5.8 4.2 76 1.7 WSW 6 7 3 4 - - 7.2
18/07:30am 8.0 5.5 3.6 74 1.9 WSW 6 6 3 3 - - 7.2
18/07:20am 7.4 5.3 1.7 67 2.3 WSW 2 4 1 2 - - 7.2
18/07:10am 6.4 4.3 1.8 72 1.9 WSW 2 4 1 2 - - 7.2
18/07:00am 6.7 3.9 2.1 72 1.9 W 6 6 3 3 - - 7.2
18/06:50am 6.4 3.6 2.0 73 1.8 WSW 6 6 3 3 - - 7.2
18/06:40am 6.3 4.0 2.6 77 1.5 WSW 4 6 2 3 - - 7.2
18/06:30am 6.2 3.9 2.8 79 1.4 WSW 4 4 2 2 - - 7.2
18/06:20am 6.0 3.7 3.0 81 1.2 WSW 4 4 2 2 - - 7.2
18/06:10am 5.9 3.7 3.3 83 1.1 WSW 4 6 2 3 - - 7.2
18/06:00am 5.9 3.7 3.6 85 1.0 WSW 4 6 2 3 - - 7.2
18/05:50am 6.0 3.9 3.9 86 0.9 WSW 4 6 2 3 - - 7.2
18/05:40am 6.0 3.9 3.9 86 0.9 WSW 4 6 2 3 - - 7.2
18/05:30am 5.9 3.8 3.7 86 0.9 WSW 4 6 2 3 - - 7.2
18/05:20am 5.8 3.7 3.8 87 0.8 WSW 4 4 2 2 - - 7.2
18/05:10am 5.8 3.3 3.8 87 0.8 WSW 6 6 3 3 - - 7.2
18/05:00am 5.6 3.5 4.1 90 0.6 WSW 4 4 2 2 - - 7.0
18/04:50am 5.6 3.9 4.2 91 0.6 WSW 2 4 1 2 - - 7.0
18/04:40am 5.6 3.9 4.2 91 0.6 SW 2 4 1 2 - - 7.0
18/04:30am 5.6 3.5 4.0 89 0.7 WSW 4 6 2 3 - - 7.0
18/04:20am 5.7 3.6 4.0 89 0.7 SW 4 6 2 3 - - 7.0
18/04:10am 5.7 4.0 4.1 89 0.7 SW 2 4 1 2 - - 7.0
18/04:00am 5.7 3.6 4.1 89 0.7 SW 4 4 2 2 - - 7.0
18/03:50am 5.7 3.6 4.1 89 0.7 SSW 4 7 2 4 - - 7.0
18/03:40am 5.7 3.3 4.2 90 0.6 SSW 6 7 3 4 - - 7.0
18/03:30am 5.7 3.7 4.2 90 0.6 SW 4 6 2 3 - - 7.0
18/03:20am 5.7 3.7 4.2 90 0.6 SW 4 4 2 2 - - 7.0
18/03:10am 5.8 4.2 4.3 90 0.6 WSW 2 4 1 2 - - 7.0
18/03:00am 6.0 4.0 4.3 89 0.7 SW 4 6 2 3 - - 7.0
18/02:50am 5.9 3.5 4.3 89 0.7 WSW 6 6 3 3 - - 7.0
18/02:40am 5.8 3.7 4.1 89 0.7 WSW 4 6 2 3 - - 7.0
18/02:30am 5.8 4.1 4.1 89 0.7 SW 2 4 1 2 - - 7.0
18/02:20am 5.9 3.8 4.1 88 0.8 WSW 4 6 2 3 - - 7.0
18/02:10am 5.9 3.9 4.2 89 0.7 WSW 4 6 2 3 - - 7.0
18/02:00am 6.1 3.7 4.1 87 0.9 WSW 6 7 3 4 - - 7.0
18/01:50am 6.1 3.7 4.2 88 0.8 WSW 6 7 3 4 - - 7.0
18/01:40am 6.0 3.6 4.1 88 0.8 WSW 6 6 3 3 - - 7.0
18/01:30am 5.8 4.1 4.1 89 0.7 WSW 2 4 1 2 - - 7.0
18/01:20am 5.8 3.7 4.1 89 0.7 WSW 4 4 2 2 - - 7.0
18/01:10am 5.8 3.7 4.1 89 0.7 SW 4 4 2 2 - - 7.0
18/01:00am 5.8 3.7 4.1 89 0.7 SW 4 4 2 2 - - 7.0
18/12:50am 5.7 3.3 4.1 89 0.7 SW 6 6 3 3 - - 7.0
18/12:40am 5.8 3.4 4.1 89 0.7 SSW 6 7 3 4 - - 7.0
18/12:30am 5.7 3.3 4.2 90 0.6 SW 6 6 3 3 - - 7.0
18/12:20am 5.8 3.8 4.3 90 0.6 SW 4 6 2 3 - - 7.0
18/12:10am 5.8 3.8 4.4 91 0.6 SW 4 6 2 3 - - 7.0
18/12:00am 5.8 3.8 4.4 91 0.6 WSW 4 6 2 3 - - 7.0
 
Date/Time
WST
Temp
°C
App
Temp
°C
Dew
Point
°C
Rel
Hum
%
Delta-T
°C
Wind Press
QNH
hPa
Press
MSL
hPa
Rain since
9am
mm
Dir  Spd
km/h
Gust
km/h
Spd
kts
Gust
kts
17/11:50pm 5.9 3.5 4.4 90 0.6 SW 6 6 3 3 - - 7.0
17/11:40pm 5.9 3.5 4.3 89 0.7 SW 6 7 3 4 - - 7.0
17/11:30pm 6.1 3.7 4.4 89 0.7 SW 6 7 3 4 - - 7.0
17/11:20pm 6.1 3.7 4.5 89 0.7 WSW 6 7 3 4 - - 7.0
17/11:10pm 5.9 3.5 4.5 91 0.6 SW 6 7 3 4 - - 7.0
17/11:00pm 5.9 3.5 4.5 91 0.6 SSW 6 9 3 5 - - 7.0
17/10:50pm 5.8 3.9 4.7 93 0.5 SW 4 7 2 4 - - 7.0
17/10:40pm 5.9 3.6 4.8 93 0.5 WSW 6 7 3 4 - - 7.0
17/10:30pm 5.8 3.9 4.9 94 0.4 WSW 4 7 2 4 - - 7.0
17/10:20pm 5.7 4.2 4.8 94 0.4 SW 2 4 1 2 - - 7.0
17/10:10pm 5.8 4.7 4.9 94 0.4 CALM 0 4 0 2 - - 7.0
17/10:00pm 6.0 4.5 5.0 93 0.4 SSW 2 4 1 2 - - 7.0
17/09:50pm 6.2 4.7 5.2 93 0.4 SW 2 4 1 2 - - 7.0
17/09:40pm 6.2 4.7 5.2 93 0.4 SW 2 4 1 2 - - 7.0
17/09:30pm 6.4 4.6 5.4 93 0.4 SW 4 6 2 3 - - 7.0
17/09:20pm 6.5 4.7 5.4 93 0.5 SW 4 6 2 3 - - 7.0
17/09:10pm 6.5 4.3 5.5 93 0.4 WSW 6 7 3 4 - - 7.0
17/09:00pm 6.4 4.1 5.5 94 0.4 WSW 7 9 4 5 - - 6.8
17/08:50pm 6.4 4.3 5.6 95 0.4 WSW 6 6 3 3 - - 6.8
17/08:40pm 6.3 4.0 5.5 95 0.4 W 7 7 4 4 - - 6.8
17/08:30pm 6.5 4.4 5.7 95 0.4 WSW 6 7 3 4 - - 6.8
17/08:20pm 6.7 5.0 5.9 95 0.4 SW 4 6 2 3 - - 6.8
17/08:10pm 6.7 5.0 6.0 95 0.3 SW 4 6 2 3 - - 6.8
17/08:00pm 6.9 5.3 6.2 95 0.3 SW 4 7 2 4 - - 6.8
17/07:50pm 7.1 5.5 6.3 95 0.4 WSW 4 6 2 3 - - 6.8
17/07:40pm 7.2 5.6 6.5 95 0.3 SW 4 4 2 2 - - 6.8
17/07:30pm 7.2 5.3 6.5 95 0.3 SSW 6 6 3 3 - - 6.8
17/07:20pm 7.3 5.4 6.6 95 0.3 S 6 6 3 3 - - 6.8
17/07:10pm 7.5 6.0 6.8 95 0.3 S 4 6 2 3 - - 6.8
17/07:00pm 7.6 5.8 7.0 96 0.3 S 6 7 3 4 - - 6.8
17/06:50pm 7.7 5.9 7.0 95 0.3 S 6 6 3 3 - - 6.8
17/06:40pm 7.7 6.2 7.0 95 0.3 SSE 4 6 2 3 - - 6.4
17/06:30pm 7.6 6.1 6.9 95 0.3 S 4 4 2 2 - - 6.4
17/06:20pm 7.6 6.5 6.8 95 0.4 S 2 4 1 2 - - 6.4
17/06:10pm 7.7 6.6 6.9 95 0.4 S 2 4 1 2 - - 6.4
17/06:00pm 7.9 6.4 7.0 94 0.4 S 4 6 2 3 - - 6.4
17/05:50pm 8.0 6.6 7.2 95 0.4 S 4 6 2 3 - - 6.4
17/05:40pm 8.2 7.2 7.3 94 0.4 S 2 2 1 1 - - 6.4
17/05:30pm 8.2 7.2 7.3 94 0.4 SE 2 6 1 3 - - 6.4
17/05:20pm 8.3 7.3 7.4 94 0.4 SSE 2 2 1 1 - - 6.4
17/05:10pm 8.3 7.7 7.3 93 0.5 CALM 0 2 0 1 - - 6.4
17/05:00pm 8.3 7.3 7.3 93 0.5 SSW 2 4 1 2 - - 6.4
17/04:50pm 8.3 6.9 7.2 93 0.5 WSW 4 6 2 3 - - 6.2
17/04:40pm 8.3 6.5 7.2 93 0.5 SW 6 6 3 3 - - 5.4
17/04:30pm 8.4 6.6 7.3 93 0.5 SSW 6 7 3 4 - - 5.0
17/04:20pm 8.4 6.4 7.2 92 0.6 SSW 7 9 4 5 - - 4.6
17/04:10pm 8.4 6.4 7.2 92 0.6 SSW 7 9 4 5 - - 4.4
17/04:00pm 8.4 6.4 7.2 92 0.6 S 7 9 4 5 - - 4.4
17/03:50pm 8.4 6.4 7.3 93 0.5 S 7 9 4 5 - - 4.2
17/03:40pm 8.3 5.9 7.0 91 0.6 S 9 11 5 6 - - 4.2
17/03:30pm 8.5 5.7 6.9 90 0.7 SSW 11 13 6 7 - - 4.2
17/03:20pm 8.9 5.4 7.1 88 0.8 WSW 15 22 8 12 - - 3.8
17/03:10pm 9.7 5.7 6.8 82 1.4 W 17 24 9 13 - - 2.6
17/03:00pm 10.8 7.1 6.3 74 2.1 W 15 19 8 10 - - 1.8
17/02:50pm 11.4 8.5 6.5 72 2.3 W 11 13 6 7 - - 1.4
17/02:40pm 11.6 8.9 5.5 66 2.8 W 9 11 5 6 - - 1.2
17/02:30pm 11.9 8.5 5.8 66 2.8 W 13 19 7 10 - - 1.2
17/02:20pm 12.6 8.8 5.9 63 3.2 W 15 17 8 9 - - 1.2
17/02:10pm 12.8 9.0 6.0 63 3.2 W 15 19 8 10 - - 1.2
17/02:00pm 12.7 8.2 5.9 63 3.2 W 19 20 10 11 - - 1.2
17/01:50pm 12.8 8.2 5.4 60 3.4 W 19 20 10 11 - - 1.2
17/01:40pm 12.5 8.8 6.2 65 3.0 W 15 19 8 10 - - 1.2
17/01:30pm 12.7 9.1 6.7 67 2.9 WSW 15 19 8 10 - - 1.2
17/01:20pm 12.6 8.7 7.1 69 2.7 WSW 17 19 9 10 - - 1.2
17/01:10pm 12.6 9.1 7.0 68 2.7 WSW 15 24 8 13 - - 1.2
17/01:00pm 13.4 10.5 6.3 62 3.4 SW 11 19 6 10 - - 1.2
17/12:50pm 13.3 10.6 7.4 67 2.9 SW 11 13 6 7 - - 1.2
17/12:40pm 12.3 9.7 7.8 74 2.2 SSW 11 13 6 7 - - 1.2
17/12:30pm 13.5 9.7 7.4 66 3.0 WSW 17 24 9 13 - - 1.2
17/12:20pm 14.6 10.2 6.6 58 3.9 WSW 19 24 10 13 - - 1.2
17/12:10pm 14.4 9.8 6.6 59 3.8 W 20 28 11 15 - - 1.2
17/12:00pm 13.9 8.9 6.5 61 3.6 W 22 28 12 15 - - 1.2
17/11:50am 13.3 8.2 5.9 61 3.5 W 22 28 12 15 - - 1.2
17/11:40am 12.9 7.8 6.1 63 3.2 WSW 22 24 12 13 - - 1.2
17/11:30am 12.5 7.4 6.1 65 3.0 W 22 28 12 15 - - 1.2
17/11:20am 12.4 7.5 5.2 61 3.3 W 20 28 11 15 - - 1.2
17/11:10am 12.0 7.2 5.5 64 3.0 W 20 26 11 14 - - 1.2
17/11:00am 11.9 6.8 6.1 67 2.7 W 22 26 12 14 - - 1.2
17/10:50am 11.8 7.1 5.3 64 3.0 W 19 22 10 12 - - 1.2
17/10:40am 11.4 7.3 6.1 70 2.5 W 17 22 9 12 - - 1.2
17/10:30am 10.6 6.1 7.0 78 1.7 W 20 24 11 13 - - 1.2
17/10:20am 10.1 5.8 6.8 80 1.6 W 19 24 10 13 - - 1.2
17/10:10am 9.8 4.9 7.0 83 1.3 W 22 26 12 14 - - 1.2
17/10:00am 11.0 6.6 6.6 74 2.1 W 19 22 10 12 - - 0.4
17/09:50am 11.9 7.9 6.6 70 2.5 W 17 20 9 11 - - 0.0
17/09:40am 11.9 8.3 6.6 70 2.5 WSW 15 19 8 10 - - 0.0
17/09:30am 12.0 8.1 7.3 73 2.3 WSW 17 22 9 12 - - 0.0
17/09:20am 11.5 7.1 6.7 72 2.3 W 19 24 10 13 - - 0.0
17/09:10am 11.1 6.7 6.6 74 2.1 W 19 28 10 15 - - 0.0
17/09:00am 10.8 6.3 6.9 77 1.8 W 20 28 11 15 - - 12.4
17/08:50am 10.3 6.0 6.8 79 1.6 W 19 22 10 12 - - 12.4
17/08:40am 9.9 6.0 7.3 84 1.2 W 17 20 9 11 - - 12.4
17/08:30am 9.5 6.0 7.4 87 1.0 WNW 15 15 8 8 - - 12.4
17/08:20am 8.8 5.6 6.9 88 0.9 WNW 13 15 7 8 - - 12.4
17/08:10am 8.5 4.9 6.6 88 0.9 WNW 15 19 8 10 - - 12.4
17/08:00am 8.3 4.2 6.4 88 0.9 W 17 19 9 10 - - 12.4
17/07:50am 8.3 3.8 6.2 87 1.0 W 19 22 10 12 - - 12.4
17/07:40am 8.2 3.7 6.1 87 1.0 WNW 19 20 10 11 - - 12.4
17/07:30am 8.1 4.3 6.0 87 1.0 WNW 15 17 8 9 - - 12.2
17/07:20am 7.8 4.0 5.8 87 0.9 WNW 15 17 8 9 - - 12.2
17/07:10am 7.6 3.8 5.6 87 0.9 W 15 17 8 9 - - 12.2
17/07:00am 7.8 3.6 5.6 86 1.0 W 17 22 9 12 - - 12.2
17/06:50am 8.0 3.2 5.7 85 1.0 W 20 22 11 12 - - 12.2
17/06:40am 8.2 1.9 5.8 85 1.1 W 28 35 15 19 - - 12.2
17/06:30am 8.1 3.5 5.8 85 1.0 W 19 22 10 12 - - 11.6
17/06:20am 8.0 3.8 5.5 84 1.1 W 17 19 9 10 - - 11.4
17/06:10am 8.4 3.6 5.7 83 1.2 W 20 26 11 14 - - 11.4
17/06:00am 8.6 3.5 5.9 83 1.2 W 22 26 12 14 - - 11.4
17/05:50am 8.9 3.6 6.7 86 1.0 W 24 30 13 16 - - 11.4
17/05:40am 9.0 3.8 7.3 89 0.8 W 24 30 13 16 - - 11.4
17/05:30am 8.7 5.3 7.5 92 0.6 W 15 24 8 13 - - 11.2
17/05:20am 8.6 5.1 7.4 92 0.6 W 15 19 8 10 - - 10.4
17/05:10am 8.5 5.4 7.4 93 0.5 WNW 13 17 7 9 - - 10.4
17/05:00am 8.7 5.7 7.5 92 0.6 WNW 13 17 7 9 - - 10.0
17/04:50am 8.8 5.3 7.3 90 0.7 WNW 15 17 8 9 - - 9.4
17/04:40am 9.0 5.5 7.1 88 0.9 WNW 15 19 8 10 - - 9.2
17/04:30am 9.1 5.2 7.2 88 0.9 WNW 17 19 9 10 - - 9.2
17/04:20am 9.3 5.1 7.6 89 0.8 W 19 24 10 13 - - 9.2
17/04:10am 9.5 5.3 7.4 87 1.0 W 19 22 10 12 - - 8.4
17/04:00am 9.8 4.2 7.3 84 1.2 WNW 26 33 14 18 - - 8.4
17/03:50am 9.8 4.5 6.9 82 1.4 WNW 24 30 13 16 - - 8.4
17/03:40am 9.8 4.5 6.7 81 1.5 WNW 24 30 13 16 - - 8.4
17/03:30am 9.6 4.7 8.4 92 0.6 NW 24 30 13 16 - - 8.2
17/03:20am 9.5 6.8 8.8 95 0.3 NW 13 15 7 8 - - 7.6
17/03:10am 9.5 7.1 8.6 94 0.4 NNW 11 13 6 7 - - 7.0
17/03:00am 9.5 7.1 8.6 94 0.4 NNW 11 13 6 7 - - 7.0
17/02:50am 9.5 7.1 8.5 93 0.5 NW 11 13 6 7 - - 7.0
17/02:40am 9.6 6.8 8.4 92 0.6 NNW 13 15 7 8 - - 7.0
17/02:30am 9.5 7.0 8.4 93 0.5 NNW 11 15 6 8 - - 7.0
17/02:20am 9.6 6.4 8.3 92 0.6 NW 15 22 8 12 - - 7.0
17/02:10am 9.5 6.3 8.4 93 0.5 NW 15 19 8 10 - - 7.0
17/02:00am 9.4 7.0 8.6 95 0.4 NNW 11 15 6 8 - - 7.0
17/01:50am 9.5 7.1 8.6 94 0.4 NNW 11 15 6 8 - - 6.2
17/01:40am 9.6 7.2 8.6 93 0.5 NNW 11 19 6 10 - - 6.0
17/01:30am 9.6 7.6 8.6 93 0.5 NW 9 11 5 6 - - 4.6
17/01:20am 9.6 7.1 8.4 92 0.6 NNW 11 11 6 6 - - 4.4
17/01:10am 9.6 7.1 8.3 92 0.6 NNW 11 13 6 7 - - 4.4
17/01:00am 9.8 7.3 8.4 91 0.7 NNW 11 15 6 8 - - 4.4
17/12:50am 10.0 6.8 8.6 91 0.7 NW 15 19 8 10 - - 4.4
17/12:40am 10.1 6.9 8.6 90 0.7 WNW 15 19 8 10 - - 4.4
17/12:30am 10.1 6.5 8.5 90 0.8 WNW 17 20 9 11 - - 4.4
17/12:20am 10.2 6.6 8.5 89 0.8 WNW 17 19 9 10 - - 4.4
17/12:10am 10.2 6.3 8.5 89 0.8 WNW 19 20 10 11 - - 4.4
17/12:00am 10.3 6.7 8.4 88 0.9 NW 17 19 9 10 - - 4.0
 
Date/Time
WST
Temp
°C
App
Temp
°C
Dew
Point
°C
Rel
Hum
%
Delta-T
°C
Wind Press
QNH
hPa
Press
MSL
hPa
Rain since
9am
mm
Dir  Spd
km/h
Gust
km/h
Spd
kts
Gust
kts
16/11:50pm 10.3 7.1 8.3 87 1.0 NW 15 17 8 9 - - 3.8
16/11:40pm 10.3 6.7 8.3 87 1.0 NW 17 20 9 11 - - 3.8
16/11:30pm 10.1 7.2 8.0 87 1.0 NW 13 17 7 9 - - 3.6
16/11:20pm 9.7 7.1 7.7 87 1.0 NW 11 13 6 7 - - 3.6
16/11:10pm 9.6 6.9 7.5 87 1.0 NNW 11 13 6 7 - - 3.6
16/11:00pm 9.6 6.9 7.4 86 1.0 NNW 11 11 6 6 - - 3.6
16/10:50pm 9.7 7.0 7.5 86 1.0 NNW 11 13 6 7 - - 3.6
16/10:40pm 9.9 7.3 7.6 85 1.1 NNW 11 13 6 7 - - 3.6
16/10:30pm 10.0 7.4 7.7 86 1.1 NNW 11 13 6 7 - - 3.6
16/10:20pm 10.1 7.1 7.6 84 1.2 NW 13 15 7 8 - - 3.6
16/10:10pm 10.3 6.9 7.5 83 1.3 NW 15 17 8 9 - - 3.6
16/10:00pm 10.5 6.7 7.5 82 1.4 NW 17 20 9 11 - - 3.6
16/09:50pm 10.8 6.1 7.6 80 1.5 WNW 22 24 12 13 - - 3.6
16/09:40pm 10.8 6.7 7.8 82 1.5 WNW 19 26 10 14 - - 3.6
16/09:30pm 10.3 7.3 7.6 83 1.3 NW 13 20 7 11 - - 3.6
16/09:20pm 10.1 7.8 7.5 84 1.2 NW 9 11 5 6 - - 3.6
16/09:10pm 10.0 8.1 7.6 85 1.1 NW 7 9 4 5 - - 3.6
16/09:00pm 10.2 8.3 7.6 84 1.2 NW 7 9 4 5 - - 3.6
16/08:50pm 10.3 8.1 7.8 84 1.2 NNW 9 11 5 6 - - 3.6
16/08:40pm 10.5 8.3 7.8 83 1.3 NNW 9 11 5 6 - - 3.6
16/08:30pm 10.4 8.3 8.1 86 1.1 NW 9 13 5 7 - - 3.6
16/08:20pm 10.5 8.0 8.3 86 1.1 NW 11 13 6 7 - - 3.6
16/08:10pm 10.6 8.5 8.4 86 1.1 WNW 9 11 5 6 - - 3.6
16/08:00pm 10.4 8.7 8.3 87 1.0 NW 7 7 4 4 - - 3.4
16/07:50pm 10.5 8.4 8.3 86 1.1 NW 9 13 5 7 - - 3.4
16/07:40pm 10.9 8.4 8.3 84 1.3 WNW 11 15 6 8 - - 3.4
16/07:30pm 11.3 7.7 8.5 83 1.4 WNW 17 22 9 12 - - 3.4
16/07:20pm 11.3 8.8 8.3 82 1.5 WNW 11 20 6 11 - - 3.0
16/07:10pm 11.1 9.2 7.7 79 1.6 NW 7 9 4 5 - - 2.8
16/07:00pm 11.5 9.3 7.8 78 1.8 NW 9 11 5 6 - - 2.8
16/06:50pm 12.1 9.1 7.7 74 2.1 WNW 13 17 7 9 - - 2.8
16/06:40pm 12.2 9.2 7.7 74 2.2 WNW 13 15 7 8 - - 2.8
16/06:30pm 12.4 9.4 7.7 73 2.3 WNW 13 17 7 9 - - 2.8
16/06:20pm 12.4 9.4 7.8 73 2.3 WNW 13 15 7 8 - - 2.6
16/06:10pm 12.3 9.3 7.5 72 2.3 WNW 13 15 7 8 - - 2.6
16/06:00pm 12.6 8.9 7.8 72 2.4 WNW 17 19 9 10 - - 2.6
16/05:50pm 12.7 9.0 8.0 73 2.3 WNW 17 20 9 11 - - 2.6
16/05:40pm 12.9 8.8 8.0 72 2.4 WNW 19 22 10 12 - - 2.6
16/05:30pm 13.1 8.8 8.0 71 2.5 WNW 20 22 11 12 - - 2.6
16/05:20pm 13.7 8.7 8.2 69 2.7 W 24 30 13 16 - - 2.6
16/05:10pm 13.9 10.3 8.2 68 2.8 WNW 17 24 9 13 - - 2.6
16/05:00pm 14.4 11.0 9.1 70 2.7 WNW 17 20 9 11 - - 2.6
16/04:50pm 14.7 9.7 8.2 65 3.3 W 24 28 13 15 - - 2.6
16/04:40pm 14.9 10.9 8.4 65 3.3 WNW 19 26 10 14 - - 2.6
16/04:30pm 14.9 11.6 9.7 71 2.7 WNW 17 24 9 13 - - 2.6
16/04:20pm 14.7 10.9 9.8 72 2.5 W 20 22 11 12 - - 2.6
16/04:10pm 14.5 10.4 10.0 74 2.3 W 22 26 12 14 - - 2.6
16/04:00pm 14.0 9.5 10.0 77 2.1 W 24 28 13 15 - - 2.6
16/03:50pm 14.4 10.1 10.6 78 2.0 W 24 30 13 16 - - 2.6
16/03:40pm 15.1 10.7 10.4 73 2.5 W 24 30 13 16 - - 2.6
16/03:10pm 14.5 10.1 10.5 77 2.1 W 24 32 13 17 - - 2.6
16/02:40pm 15.5 11.3 11.0 74 2.4 WNW 24 30 13 16 - - 2.6
16/02:20pm 15.3 11.0 10.8 74 2.4 WNW 24 30 13 16 - - 2.6
16/02:10pm 14.9 10.4 11.4 79 1.9 W 26 32 14 17 - - 2.6
16/02:00pm 14.5 10.7 11.3 81 1.7 W 22 28 12 15 - - 2.6
16/01:50pm 14.0 10.7 11.6 85 1.3 W 20 26 11 14 - - 2.6
16/01:40pm 13.8 10.1 11.4 85 1.3 W 22 28 12 15 - - 2.6
16/01:30pm 14.0 10.7 11.7 86 1.2 W 20 26 11 14 - - 2.6
16/01:20pm 13.7 9.9 11.1 84 1.4 W 22 26 12 14 - - 2.6
16/12:50pm 12.9 8.5 10.5 85 1.2 W 24 28 13 15 - - 2.6
16/12:30pm 13.4 10.3 12.1 92 0.7 W 20 26 11 14 - - 2.6
16/12:10pm 14.1 11.1 11.9 86 1.2 W 19 20 10 11 - - 1.6
16/11:50am 13.7 10.3 11.4 86 1.2 W 20 22 11 12 - - 1.6
16/11:40am 13.6 10.2 11.3 86 1.2 W 20 24 11 13 - - 1.6
16/11:20am 13.1 8.2 11.3 89 1.0 W 28 32 15 17 - - 1.4
16/11:10am 13.7 9.8 12.2 91 0.8 W 24 30 13 16 - - 1.2
16/11:00am 13.9 10.1 12.3 90 0.9 W 24 32 13 17 - - 1.2
16/10:50am 14.0 10.2 12.5 91 0.8 W 24 30 13 16 - - 1.2
16/10:40am 14.3 11.5 13.1 92 0.7 W 20 24 11 13 - - 1.2
16/10:20am 14.6 11.0 13.2 91 0.8 W 24 28 13 15 - - 1.0
16/09:50am 15.5 13.1 13.8 90 1.0 WNW 19 20 10 11 - - 0.0
16/09:30am 15.4 13.1 14.0 91 0.8 WNW 19 22 10 12 - - 0.0
16/09:20am 15.3 13.8 14.1 92 0.7 NW 15 19 8 10 - - 0.0
16/09:10am 15.3 13.7 14.0 92 0.7 WNW 15 19 8 10 - - 0.0
16/08:30am 15.1 13.5 14.0 93 0.6 WNW 15 17 8 9 - - 25.0
16/08:20am 15.0 13.4 14.0 94 0.6 W 15 19 8 10 - - 24.8
16/08:10am 15.1 13.2 14.1 94 0.6 W 17 19 9 10 - - 24.6
16/08:00am 15.2 13.3 14.1 93 0.6 WNW 17 20 9 11 - - 24.6
16/07:50am 15.3 14.2 14.3 94 0.6 WNW 13 17 7 9 - - 24.4
16/07:40am 15.3 14.2 14.4 94 0.5 WNW 13 15 7 8 - - 24.4

Other formats

Comma delimited format used in spreadsheet applications
http://www.bom.gov.au/fwo/IDW60801/IDW60801.99457.axf

JavaScript Object Notation format (JSON) in row-major order
http://www.bom.gov.au/fwo/IDW60801/IDW60801.99457.json

Data quality

Most of these data are generated automatically and are frequently updated. Quality checks on data are not normally performed. It is possible for incorrect values to appear. Refer to information at About Latest Weather Observations and please check the disclaimer before using these data.